sensor_id;sensor_type;location;lat;lon;timestamp;temperature;humidity
19906;DHT22;10115;50.906;4.438;2023-12-04T00:02:14;3.60;99.90
19906;DHT22;10115;50.906;4.438;2023-12-04T00:04:40;3.60;99.90
19906;DHT22;10115;50.906;4.438;2023-12-04T00:07:05;3.50;99.90
19906;DHT22;10115;50.906;4.438;2023-12-04T00:09:31;3.70;99.90
19906;DHT22;10115;50.906;4.438;2023-12-04T00:11:56;3.60;99.90
19906;DHT22;10115;50.906;4.438;2023-12-04T00:14:22;3.60;99.90
19906;DHT22;10115;50.906;4.438;2023-12-04T00:16:48;3.50;99.90
19906;DHT22;10115;50.906;4.438;2023-12-04T00:19:13;3.60;99.90
19906;DHT22;10115;50.906;4.438;2023-12-04T00:21:39;3.50;99.90
19906;DHT22;10115;50.906;4.438;2023-12-04T00:24:05;3.40;99.90
19906;DHT22;10115;50.906;4.438;2023-12-04T00:26:30;3.60;99.90
19906;DHT22;10115;50.906;4.438;2023-12-04T00:28:56;3.50;99.90
19906;DHT22;10115;50.906;4.438;2023-12-04T00:31:22;3.40;99.90
19906;DHT22;10115;50.906;4.438;2023-12-04T00:33:47;3.30;99.90
19906;DHT22;10115;50.906;4.438;2023-12-04T00:36:13;3.20;99.90
19906;DHT22;10115;50.906;4.438;2023-12-04T00:38:39;3.20;99.90
19906;DHT22;10115;50.906;4.438;2023-12-04T00:41:05;3.10;99.90
19906;DHT22;10115;50.906;4.438;2023-12-04T00:43:31;3.20;99.90
19906;DHT22;10115;50.906;4.438;2023-12-04T00:45:56;3.20;99.90
19906;DHT22;10115;50.906;4.438;2023-12-04T00:48:22;3.20;99.90
19906;DHT22;10115;50.906;4.438;2023-12-04T00:50:48;3.20;99.90
19906;DHT22;10115;50.906;4.438;2023-12-04T00:53:13;3.40;99.90
19906;DHT22;10115;50.906;4.438;2023-12-04T00:55:39;3.40;99.90
19906;DHT22;10115;50.906;4.438;2023-12-04T00:58:05;3.30;99.90
19906;DHT22;10115;50.906;4.438;2023-12-04T01:00:31;3.50;99.90
19906;DHT22;10115;50.906;4.438;2023-12-04T01:02:56;3.20;99.90
19906;DHT22;10115;50.906;4.438;2023-12-04T01:05:22;3.20;99.90
19906;DHT22;10115;50.906;4.438;2023-12-04T01:07:47;3.20;99.90
19906;DHT22;10115;50.906;4.438;2023-12-04T01:10:13;3.10;99.90
19906;DHT22;10115;50.906;4.438;2023-12-04T01:12:39;3.10;99.90
19906;DHT22;10115;50.906;4.438;2023-12-04T01:15:05;3.00;99.90
19906;DHT22;10115;50.906;4.438;2023-12-04T01:17:30;3.10;99.90
19906;DHT22;10115;50.906;4.438;2023-12-04T01:19:56;3.20;99.90
19906;DHT22;10115;50.906;4.438;2023-12-04T01:22:23;3.40;99.90
19906;DHT22;10115;50.906;4.438;2023-12-04T01:24:48;3.50;99.90
19906;DHT22;10115;50.906;4.438;2023-12-04T01:27:14;3.50;99.90
19906;DHT22;10115;50.906;4.438;2023-12-04T01:29:40;3.30;99.90
19906;DHT22;10115;50.906;4.438;2023-12-04T01:32:06;3.30;99.90
19906;DHT22;10115;50.906;4.438;2023-12-04T01:34:31;3.40;99.90
19906;DHT22;10115;50.906;4.438;2023-12-04T01:36:57;3.50;99.90
19906;DHT22;10115;50.906;4.438;2023-12-04T01:39:23;3.30;99.90
19906;DHT22;10115;50.906;4.438;2023-12-04T01:41:48;3.20;99.90
19906;DHT22;10115;50.906;4.438;2023-12-04T01:44:14;3.10;99.90
19906;DHT22;10115;50.906;4.438;2023-12-04T01:46:40;3.00;99.90
19906;DHT22;10115;50.906;4.438;2023-12-04T01:49:06;2.90;99.90
19906;DHT22;10115;50.906;4.438;2023-12-04T01:51:32;3.00;99.90
19906;DHT22;10115;50.906;4.438;2023-12-04T01:53:59;3.10;99.90
19906;DHT22;10115;50.906;4.438;2023-12-04T01:56:25;3.10;99.90
19906;DHT22;10115;50.906;4.438;2023-12-04T01:58:52;2.90;99.90
19906;DHT22;10115;50.906;4.438;2023-12-04T02:01:18;3.00;99.90
19906;DHT22;10115;50.906;4.438;2023-12-04T02:03:45;3.00;99.90
19906;DHT22;10115;50.906;4.438;2023-12-04T02:06:12;3.10;99.90
19906;DHT22;10115;50.906;4.438;2023-12-04T02:08:39;3.10;99.90
19906;DHT22;10115;50.906;4.438;2023-12-04T02:11:05;3.10;99.90
19906;DHT22;10115;50.906;4.438;2023-12-04T02:13:31;3.00;99.90
19906;DHT22;10115;50.906;4.438;2023-12-04T02:15:58;3.10;99.90
19906;DHT22;10115;50.906;4.438;2023-12-04T02:18:27;2.90;99.90
19906;DHT22;10115;50.906;4.438;2023-12-04T02:20:53;3.00;99.90
19906;DHT22;10115;50.906;4.438;2023-12-04T02:23:19;3.00;99.90
19906;DHT22;10115;50.906;4.438;2023-12-04T02:25:44;3.00;99.90
19906;DHT22;10115;50.906;4.438;2023-12-04T02:28:14;3.00;99.90
19906;DHT22;10115;50.906;4.438;2023-12-04T02:30:43;3.00;99.90
19906;DHT22;10115;50.906;4.438;2023-12-04T02:33:11;3.00;99.90
19906;DHT22;10115;50.906;4.438;2023-12-04T02:35:39;2.80;99.90
19906;DHT22;10115;50.906;4.438;2023-12-04T02:38:06;2.90;99.90
19906;DHT22;10115;50.906;4.438;2023-12-04T02:40:32;2.90;99.90
19906;DHT22;10115;50.906;4.438;2023-12-04T02:42:57;2.80;99.90
19906;DHT22;10115;50.906;4.438;2023-12-04T02:45:23;2.80;99.90
19906;DHT22;10115;50.906;4.438;2023-12-04T02:47:49;2.90;99.90
19906;DHT22;10115;50.906;4.438;2023-12-04T02:50:14;2.90;99.90
19906;DHT22;10115;50.906;4.438;2023-12-04T02:52:40;2.90;99.90
19906;DHT22;10115;50.906;4.438;2023-12-04T02:55:06;2.90;99.90
19906;DHT22;10115;50.906;4.438;2023-12-04T02:57:31;3.00;99.90
19906;DHT22;10115;50.906;4.438;2023-12-04T02:59:57;3.00;99.90
19906;DHT22;10115;50.906;4.438;2023-12-04T03:02:23;3.00;99.90
19906;DHT22;10115;50.906;4.438;2023-12-04T03:04:48;3.00;99.90
19906;DHT22;10115;50.906;4.438;2023-12-04T03:07:14;3.00;99.90
19906;DHT22;10115;50.906;4.438;2023-12-04T03:09:40;3.00;99.90
19906;DHT22;10115;50.906;4.438;2023-12-04T03:12:05;2.90;99.90
19906;DHT22;10115;50.906;4.438;2023-12-04T03:14:31;3.00;99.90
19906;DHT22;10115;50.906;4.438;2023-12-04T03:16:57;3.00;99.90
19906;DHT22;10115;50.906;4.438;2023-12-04T03:19:22;3.10;99.90
19906;DHT22;10115;50.906;4.438;2023-12-04T03:21:48;3.10;99.90
19906;DHT22;10115;50.906;4.438;2023-12-04T03:24:13;3.00;99.90
19906;DHT22;10115;50.906;4.438;2023-12-04T03:26:40;3.10;99.90
19906;DHT22;10115;50.906;4.438;2023-12-04T03:29:05;3.10;99.90
19906;DHT22;10115;50.906;4.438;2023-12-04T03:31:31;3.10;99.90
19906;DHT22;10115;50.906;4.438;2023-12-04T03:33:57;2.90;99.90
19906;DHT22;10115;50.906;4.438;2023-12-04T03:36:22;3.00;99.90
19906;DHT22;10115;50.906;4.438;2023-12-04T03:38:48;2.90;99.90
19906;DHT22;10115;50.906;4.438;2023-12-04T03:41:14;3.00;99.90
19906;DHT22;10115;50.906;4.438;2023-12-04T03:43:40;3.10;99.90
19906;DHT22;10115;50.906;4.438;2023-12-04T03:46:06;3.10;99.90
19906;DHT22;10115;50.906;4.438;2023-12-04T03:48:32;3.00;99.90
19906;DHT22;10115;50.906;4.438;2023-12-04T03:50:58;3.00;99.90
19906;DHT22;10115;50.906;4.438;2023-12-04T03:53:24;3.10;99.90
19906;DHT22;10115;50.906;4.438;2023-12-04T03:55:50;3.10;99.90
19906;DHT22;10115;50.906;4.438;2023-12-04T03:58:16;3.20;99.90
19906;DHT22;10115;50.906;4.438;2023-12-04T04:00:41;3.10;99.90
19906;DHT22;10115;50.906;4.438;2023-12-04T04:03:09;3.10;99.90
19906;DHT22;10115;50.906;4.438;2023-12-04T04:05:35;3.10;99.90
19906;DHT22;10115;50.906;4.438;2023-12-04T04:08:00;3.20;99.90
19906;DHT22;10115;50.906;4.438;2023-12-04T04:10:26;3.20;99.90
19906;DHT22;10115;50.906;4.438;2023-12-04T04:12:52;3.30;99.90
19906;DHT22;10115;50.906;4.438;2023-12-04T04:15:17;3.30;99.90
19906;DHT22;10115;50.906;4.438;2023-12-04T04:17:43;3.30;99.90
19906;DHT22;10115;50.906;4.438;2023-12-04T04:20:09;3.40;99.90
19906;DHT22;10115;50.906;4.438;2023-12-04T04:22:35;3.40;99.90
19906;DHT22;10115;50.906;4.438;2023-12-04T04:25:07;3.20;99.90
19906;DHT22;10115;50.906;4.438;2023-12-04T04:27:33;3.20;99.90
19906;DHT22;10115;50.906;4.438;2023-12-04T04:29:58;3.10;99.90
19906;DHT22;10115;50.906;4.438;2023-12-04T04:32:24;3.20;99.90
19906;DHT22;10115;50.906;4.438;2023-12-04T04:34:50;3.30;99.90
19906;DHT22;10115;50.906;4.438;2023-12-04T04:37:15;3.40;99.90
19906;DHT22;10115;50.906;4.438;2023-12-04T04:39:41;3.40;99.90
19906;DHT22;10115;50.906;4.438;2023-12-04T04:42:07;3.30;99.90
19906;DHT22;10115;50.906;4.438;2023-12-04T04:44:32;3.30;99.90
19906;DHT22;10115;50.906;4.438;2023-12-04T04:46:58;3.40;99.90
19906;DHT22;10115;50.906;4.438;2023-12-04T04:49:24;3.40;99.90
19906;DHT22;10115;50.906;4.438;2023-12-04T04:51:49;3.50;99.90
19906;DHT22;10115;50.906;4.438;2023-12-04T04:54:15;3.40;99.90
19906;DHT22;10115;50.906;4.438;2023-12-04T04:56:41;3.50;99.90
19906;DHT22;10115;50.906;4.438;2023-12-04T04:59:06;3.50;99.90
19906;DHT22;10115;50.906;4.438;2023-12-04T05:01:32;3.60;99.90
19906;DHT22;10115;50.906;4.438;2023-12-04T05:03:58;3.70;99.90
19906;DHT22;10115;50.906;4.438;2023-12-04T05:06:23;3.60;99.90
19906;DHT22;10115;50.906;4.438;2023-12-04T05:08:49;3.60;99.90
19906;DHT22;10115;50.906;4.438;2023-12-04T05:11:18;3.60;99.90
19906;DHT22;10115;50.906;4.438;2023-12-04T05:13:45;3.70;99.90
19906;DHT22;10115;50.906;4.438;2023-12-04T05:16:10;3.60;99.90
19906;DHT22;10115;50.906;4.438;2023-12-04T05:18:38;3.60;99.90
19906;DHT22;10115;50.906;4.438;2023-12-04T05:21:07;3.60;99.90
19906;DHT22;10115;50.906;4.438;2023-12-04T05:23:34;3.60;99.90
19906;DHT22;10115;50.906;4.438;2023-12-04T05:25:59;3.60;99.90
19906;DHT22;10115;50.906;4.438;2023-12-04T05:28:25;3.50;99.90
19906;DHT22;10115;50.906;4.438;2023-12-04T05:30:51;3.50;99.90
19906;DHT22;10115;50.906;4.438;2023-12-04T05:33:16;3.50;99.90
19906;DHT22;10115;50.906;4.438;2023-12-04T05:35:42;3.60;99.90
19906;DHT22;10115;50.906;4.438;2023-12-04T05:38:08;3.60;99.90
19906;DHT22;10115;50.906;4.438;2023-12-04T05:40:34;3.60;99.90
19906;DHT22;10115;50.906;4.438;2023-12-04T05:42:59;3.60;99.90
19906;DHT22;10115;50.906;4.438;2023-12-04T05:45:25;3.70;99.90
19906;DHT22;10115;50.906;4.438;2023-12-04T05:47:51;3.70;99.90
19906;DHT22;10115;50.906;4.438;2023-12-04T05:50:18;3.70;99.90
19906;DHT22;10115;50.906;4.438;2023-12-04T05:52:43;3.60;99.90
19906;DHT22;10115;50.906;4.438;2023-12-04T05:55:10;3.70;99.90
19906;DHT22;10115;50.906;4.438;2023-12-04T05:57:35;3.60;99.90
19906;DHT22;10115;50.906;4.438;2023-12-04T06:00:04;3.70;99.90
19906;DHT22;10115;50.906;4.438;2023-12-04T06:02:31;3.60;99.90
19906;DHT22;10115;50.906;4.438;2023-12-04T06:04:57;3.70;99.90
19906;DHT22;10115;50.906;4.438;2023-12-04T06:07:23;3.60;99.90
19906;DHT22;10115;50.906;4.438;2023-12-04T06:09:49;3.60;99.90
19906;DHT22;10115;50.906;4.438;2023-12-04T06:12:14;3.60;99.90
19906;DHT22;10115;50.906;4.438;2023-12-04T06:14:40;3.60;99.90
19906;DHT22;10115;50.906;4.438;2023-12-04T06:17:05;3.70;99.90
19906;DHT22;10115;50.906;4.438;2023-12-04T06:19:32;3.60;99.90
19906;DHT22;10115;50.906;4.438;2023-12-04T06:21:58;3.60;99.90
19906;DHT22;10115;50.906;4.438;2023-12-04T06:24:24;3.60;99.90
19906;DHT22;10115;50.906;4.438;2023-12-04T06:26:50;3.60;99.90
19906;DHT22;10115;50.906;4.438;2023-12-04T06:29:17;3.60;99.90
19906;DHT22;10115;50.906;4.438;2023-12-04T06:31:43;3.60;99.90
19906;DHT22;10115;50.906;4.438;2023-12-04T06:34:09;3.60;99.90
19906;DHT22;10115;50.906;4.438;2023-12-04T06:36:38;3.60;99.90
19906;DHT22;10115;50.906;4.438;2023-12-04T06:39:08;3.60;99.90
19906;DHT22;10115;50.906;4.438;2023-12-04T06:41:35;3.60;99.90
19906;DHT22;10115;50.906;4.438;2023-12-04T06:44:00;3.60;99.90
19906;DHT22;10115;50.906;4.438;2023-12-04T06:46:28;3.70;99.90
19906;DHT22;10115;50.906;4.438;2023-12-04T06:48:57;3.70;99.90
19906;DHT22;10115;50.906;4.438;2023-12-04T06:51:24;3.70;99.90
19906;DHT22;10115;50.906;4.438;2023-12-04T06:53:49;3.70;99.90
19906;DHT22;10115;50.906;4.438;2023-12-04T06:56:15;3.70;99.90
19906;DHT22;10115;50.906;4.438;2023-12-04T06:58:41;3.70;99.90
19906;DHT22;10115;50.906;4.438;2023-12-04T07:01:06;3.80;99.90
19906;DHT22;10115;50.906;4.438;2023-12-04T07:03:32;3.80;99.90
19906;DHT22;10115;50.906;4.438;2023-12-04T07:05:58;3.80;99.90
19906;DHT22;10115;50.906;4.438;2023-12-04T07:08:24;3.70;99.90
19906;DHT22;10115;50.906;4.438;2023-12-04T07:10:50;3.70;99.90
19906;DHT22;10115;50.906;4.438;2023-12-04T07:13:15;3.70;99.90
19906;DHT22;10115;50.906;4.438;2023-12-04T07:15:41;3.70;99.90
19906;DHT22;10115;50.906;4.438;2023-12-04T07:18:07;3.70;99.90
19906;DHT22;10115;50.906;4.438;2023-12-04T07:20:32;3.70;99.90
19906;DHT22;10115;50.906;4.438;2023-12-04T07:22:58;3.80;99.90
19906;DHT22;10115;50.906;4.438;2023-12-04T07:25:24;3.80;99.90
19906;DHT22;10115;50.906;4.438;2023-12-04T07:27:50;3.80;99.90
19906;DHT22;10115;50.906;4.438;2023-12-04T07:30:16;3.80;99.90
19906;DHT22;10115;50.906;4.438;2023-12-04T07:32:42;3.70;99.90
19906;DHT22;10115;50.906;4.438;2023-12-04T07:35:07;3.70;99.90
19906;DHT22;10115;50.906;4.438;2023-12-04T07:37:33;3.70;99.90
19906;DHT22;10115;50.906;4.438;2023-12-04T07:39:59;3.70;99.90
19906;DHT22;10115;50.906;4.438;2023-12-04T07:42:24;3.70;99.90
19906;DHT22;10115;50.906;4.438;2023-12-04T07:44:50;3.80;99.90
19906;DHT22;10115;50.906;4.438;2023-12-04T07:47:16;3.80;99.90
19906;DHT22;10115;50.906;4.438;2023-12-04T07:49:43;3.80;99.90
19906;DHT22;10115;50.906;4.438;2023-12-04T07:52:09;3.80;99.90
19906;DHT22;10115;50.906;4.438;2023-12-04T07:54:36;3.80;99.90
19906;DHT22;10115;50.906;4.438;2023-12-04T07:57:02;3.70;99.90
19906;DHT22;10115;50.906;4.438;2023-12-04T07:59:28;3.70;99.90
19906;DHT22;10115;50.906;4.438;2023-12-04T08:01:53;3.80;99.90
19906;DHT22;10115;50.906;4.438;2023-12-04T08:04:19;3.80;99.90
19906;DHT22;10115;50.906;4.438;2023-12-04T08:06:45;3.70;99.90
19906;DHT22;10115;50.906;4.438;2023-12-04T08:09:11;3.70;99.90
19906;DHT22;10115;50.906;4.438;2023-12-04T08:11:36;3.80;99.90
19906;DHT22;10115;50.906;4.438;2023-12-04T08:14:03;3.70;99.90
19906;DHT22;10115;50.906;4.438;2023-12-04T08:16:28;3.70;99.90
19906;DHT22;10115;50.906;4.438;2023-12-04T08:18:55;3.80;99.90
19906;DHT22;10115;50.906;4.438;2023-12-04T08:21:21;3.80;99.90
19906;DHT22;10115;50.906;4.438;2023-12-04T08:23:47;3.80;99.90
19906;DHT22;10115;50.906;4.438;2023-12-04T08:26:12;3.80;99.90
19906;DHT22;10115;50.906;4.438;2023-12-04T08:28:38;3.70;99.90
19906;DHT22;10115;50.906;4.438;2023-12-04T08:31:07;3.80;99.90
19906;DHT22;10115;50.906;4.438;2023-12-04T08:33:34;3.80;99.90
19906;DHT22;10115;50.906;4.438;2023-12-04T08:36:00;3.90;99.90
19906;DHT22;10115;50.906;4.438;2023-12-04T08:38:26;4.00;99.90
19906;DHT22;10115;50.906;4.438;2023-12-04T08:40:52;3.90;99.90
19906;DHT22;10115;50.906;4.438;2023-12-04T08:43:18;4.00;99.90
19906;DHT22;10115;50.906;4.438;2023-12-04T08:45:45;3.90;99.90
19906;DHT22;10115;50.906;4.438;2023-12-04T08:48:11;4.00;99.90
19906;DHT22;10115;50.906;4.438;2023-12-04T08:50:36;3.90;99.90
19906;DHT22;10115;50.906;4.438;2023-12-04T08:53:04;3.80;99.90
19906;DHT22;10115;50.906;4.438;2023-12-04T08:55:29;3.80;99.90
19906;DHT22;10115;50.906;4.438;2023-12-04T08:57:55;3.90;99.90
19906;DHT22;10115;50.906;4.438;2023-12-04T09:00:21;3.90;99.90
19906;DHT22;10115;50.906;4.438;2023-12-04T09:02:48;3.90;99.90
19906;DHT22;10115;50.906;4.438;2023-12-04T09:05:14;3.80;99.90
19906;DHT22;10115;50.906;4.438;2023-12-04T09:07:39;3.70;99.90
19906;DHT22;10115;50.906;4.438;2023-12-04T09:10:05;3.70;99.90
19906;DHT22;10115;50.906;4.438;2023-12-04T09:12:31;3.70;99.90
19906;DHT22;10115;50.906;4.438;2023-12-04T09:14:57;3.80;99.90
19906;DHT22;10115;50.906;4.438;2023-12-04T09:17:22;3.90;99.90
19906;DHT22;10115;50.906;4.438;2023-12-04T09:19:48;4.00;99.90
19906;DHT22;10115;50.906;4.438;2023-12-04T09:22:14;3.90;99.90
19906;DHT22;10115;50.906;4.438;2023-12-04T09:24:39;3.80;99.90
19906;DHT22;10115;50.906;4.438;2023-12-04T09:27:05;3.90;99.90
19906;DHT22;10115;50.906;4.438;2023-12-04T09:29:34;3.80;99.90
19906;DHT22;10115;50.906;4.438;2023-12-04T09:31:59;3.90;99.90
19906;DHT22;10115;50.906;4.438;2023-12-04T09:34:25;4.10;99.90
19906;DHT22;10115;50.906;4.438;2023-12-04T09:36:51;4.30;99.90
19906;DHT22;10115;50.906;4.438;2023-12-04T09:39:16;4.00;99.90
19906;DHT22;10115;50.906;4.438;2023-12-04T09:41:43;4.00;99.90
19906;DHT22;10115;50.906;4.438;2023-12-04T09:44:09;3.80;99.90
19906;DHT22;10115;50.906;4.438;2023-12-04T09:46:35;3.70;99.90
19906;DHT22;10115;50.906;4.438;2023-12-04T09:49:02;3.80;99.90
19906;DHT22;10115;50.906;4.438;2023-12-04T09:51:28;3.80;99.90
19906;DHT22;10115;50.906;4.438;2023-12-04T09:53:54;3.60;99.90
19906;DHT22;10115;50.906;4.438;2023-12-04T09:56:23;3.60;99.90
19906;DHT22;10115;50.906;4.438;2023-12-04T09:58:52;3.50;99.90
19906;DHT22;10115;50.906;4.438;2023-12-04T10:01:22;3.40;99.90
19906;DHT22;10115;50.906;4.438;2023-12-04T10:03:47;3.30;99.90
19906;DHT22;10115;50.906;4.438;2023-12-04T10:06:15;3.40;99.90
19906;DHT22;10115;50.906;4.438;2023-12-04T10:08:45;3.40;99.90
19906;DHT22;10115;50.906;4.438;2023-12-04T10:11:13;3.60;99.90
19906;DHT22;10115;50.906;4.438;2023-12-04T10:13:42;3.40;99.90
19906;DHT22;10115;50.906;4.438;2023-12-04T10:16:08;3.20;99.90
19906;DHT22;10115;50.906;4.438;2023-12-04T10:18:34;3.30;99.90
19906;DHT22;10115;50.906;4.438;2023-12-04T10:20:59;3.30;99.90
19906;DHT22;10115;50.906;4.438;2023-12-04T10:23:38;3.30;99.90
19906;DHT22;10115;50.906;4.438;2023-12-04T10:26:04;3.50;99.90
19906;DHT22;10115;50.906;4.438;2023-12-04T10:28:30;3.50;99.90
19906;DHT22;10115;50.906;4.438;2023-12-04T10:30:56;3.50;99.90
19906;DHT22;10115;50.906;4.438;2023-12-04T10:33:24;3.40;99.90
19906;DHT22;10115;50.906;4.438;2023-12-04T10:35:52;3.40;99.90
19906;DHT22;10115;50.906;4.438;2023-12-04T10:38:18;3.40;99.90
19906;DHT22;10115;50.906;4.438;2023-12-04T10:40:44;3.30;99.90
19906;DHT22;10115;50.906;4.438;2023-12-04T10:43:23;3.40;99.90
19906;DHT22;10115;50.906;4.438;2023-12-04T10:45:50;3.50;99.90
19906;DHT22;10115;50.906;4.438;2023-12-04T10:48:18;3.60;99.90
19906;DHT22;10115;50.906;4.438;2023-12-04T10:50:48;3.60;99.90
19906;DHT22;10115;50.906;4.438;2023-12-04T10:53:15;3.70;99.90
19906;DHT22;10115;50.906;4.438;2023-12-04T10:55:42;3.50;99.90
19906;DHT22;10115;50.906;4.438;2023-12-04T10:58:13;3.50;99.90
19906;DHT22;10115;50.906;4.438;2023-12-04T11:00:50;3.50;99.90
19906;DHT22;10115;50.906;4.438;2023-12-04T11:03:32;3.60;99.90
19906;DHT22;10115;50.906;4.438;2023-12-04T11:06:01;3.80;99.90
19906;DHT22;10115;50.906;4.438;2023-12-04T11:08:29;3.70;99.90
19906;DHT22;10115;50.906;4.438;2023-12-04T11:11:02;3.80;99.90
19906;DHT22;10115;50.906;4.438;2023-12-04T11:13:40;4.10;99.90
19906;DHT22;10115;50.906;4.438;2023-12-04T11:16:28;4.10;99.90
19906;DHT22;10115;50.906;4.438;2023-12-04T11:21:43;4.30;99.90
19906;DHT22;10115;50.906;4.438;2023-12-04T11:24:11;4.30;99.90
19906;DHT22;10115;50.906;4.438;2023-12-04T11:26:37;4.40;99.90
19906;DHT22;10115;50.906;4.438;2023-12-04T11:29:03;4.30;99.90
19906;DHT22;10115;50.906;4.438;2023-12-04T11:31:29;4.40;99.90
19906;DHT22;10115;50.906;4.438;2023-12-04T11:34:02;4.30;99.90
19906;DHT22;10115;50.906;4.438;2023-12-04T11:36:28;4.50;99.90
19906;DHT22;10115;50.906;4.438;2023-12-04T11:38:54;4.70;99.90
19906;DHT22;10115;50.906;4.438;2023-12-04T11:41:21;4.50;99.90
19906;DHT22;10115;50.906;4.438;2023-12-04T11:43:47;4.40;99.90
19906;DHT22;10115;50.906;4.438;2023-12-04T11:46:23;4.60;99.90
19906;DHT22;10115;50.906;4.438;2023-12-04T11:48:50;4.80;99.90
19906;DHT22;10115;50.906;4.438;2023-12-04T11:54:04;4.50;99.90
19906;DHT22;10115;50.906;4.438;2023-12-04T11:56:32;4.50;99.90
19906;DHT22;10115;50.906;4.438;2023-12-04T11:59:05;4.20;99.90
19906;DHT22;10115;50.906;4.438;2023-12-04T12:01:36;4.30;99.90
19906;DHT22;10115;50.906;4.438;2023-12-04T12:04:07;4.30;99.90
19906;DHT22;10115;50.906;4.438;2023-12-04T12:06:33;4.20;99.90
19906;DHT22;10115;50.906;4.438;2023-12-04T12:08:59;4.30;99.90
19906;DHT22;10115;50.906;4.438;2023-12-04T12:11:25;4.30;99.90
19906;DHT22;10115;50.906;4.438;2023-12-04T12:13:53;4.50;99.90
19906;DHT22;10115;50.906;4.438;2023-12-04T12:16:19;4.50;99.90
19906;DHT22;10115;50.906;4.438;2023-12-04T12:18:44;4.30;99.90
19906;DHT22;10115;50.906;4.438;2023-12-04T12:21:10;4.30;99.90
19906;DHT22;10115;50.906;4.438;2023-12-04T12:23:36;4.30;99.90
19906;DHT22;10115;50.906;4.438;2023-12-04T12:26:02;4.20;99.90
19906;DHT22;10115;50.906;4.438;2023-12-04T12:28:28;4.40;99.90
19906;DHT22;10115;50.906;4.438;2023-12-04T12:30:55;4.40;99.90
19906;DHT22;10115;50.906;4.438;2023-12-04T12:33:20;4.50;99.90
19906;DHT22;10115;50.906;4.438;2023-12-04T12:35:47;4.60;99.90
19906;DHT22;10115;50.906;4.438;2023-12-04T12:38:13;4.60;99.90
19906;DHT22;10115;50.906;4.438;2023-12-04T12:40:39;4.50;99.90
19906;DHT22;10115;50.906;4.438;2023-12-04T12:43:08;4.60;99.90
19906;DHT22;10115;50.906;4.438;2023-12-04T12:45:44;4.70;99.90
19906;DHT22;10115;50.906;4.438;2023-12-04T12:48:13;4.60;99.90
19906;DHT22;10115;50.906;4.438;2023-12-04T12:50:41;4.50;99.90
19906;DHT22;10115;50.906;4.438;2023-12-04T12:53:07;4.40;99.90
19906;DHT22;10115;50.906;4.438;2023-12-04T12:55:32;4.40;99.90
19906;DHT22;10115;50.906;4.438;2023-12-04T12:57:58;4.40;99.90
19906;DHT22;10115;50.906;4.438;2023-12-04T13:00:24;4.50;99.90
19906;DHT22;10115;50.906;4.438;2023-12-04T13:02:53;4.40;99.90
19906;DHT22;10115;50.906;4.438;2023-12-04T13:05:19;4.50;99.90
19906;DHT22;10115;50.906;4.438;2023-12-04T13:07:45;4.50;99.90
19906;DHT22;10115;50.906;4.438;2023-12-04T13:10:11;4.60;99.90
19906;DHT22;10115;50.906;4.438;2023-12-04T13:12:37;4.70;99.90
19906;DHT22;10115;50.906;4.438;2023-12-04T13:15:03;4.80;99.90
19906;DHT22;10115;50.906;4.438;2023-12-04T13:17:29;4.90;99.90
19906;DHT22;10115;50.906;4.438;2023-12-04T13:19:54;4.80;99.90
19906;DHT22;10115;50.906;4.438;2023-12-04T13:22:20;4.60;99.90
19906;DHT22;10115;50.906;4.438;2023-12-04T13:24:46;4.80;99.90
19906;DHT22;10115;50.906;4.438;2023-12-04T13:27:12;4.80;99.90
19906;DHT22;10115;50.906;4.438;2023-12-04T13:29:38;4.60;99.90
19906;DHT22;10115;50.906;4.438;2023-12-04T13:32:04;4.80;99.90
19906;DHT22;10115;50.906;4.438;2023-12-04T13:34:30;4.90;99.90
19906;DHT22;10115;50.906;4.438;2023-12-04T13:36:56;4.80;99.90
19906;DHT22;10115;50.906;4.438;2023-12-04T13:39:22;4.80;99.90
19906;DHT22;10115;50.906;4.438;2023-12-04T13:42:15;4.90;99.90
19906;DHT22;10115;50.906;4.438;2023-12-04T13:45:00;4.90;99.90
19906;DHT22;10115;50.906;4.438;2023-12-04T13:47:27;4.90;99.90
19906;DHT22;10115;50.906;4.438;2023-12-04T13:49:53;4.90;99.90
19906;DHT22;10115;50.906;4.438;2023-12-04T13:52:20;5.00;99.90
19906;DHT22;10115;50.906;4.438;2023-12-04T13:54:48;4.90;99.90
19906;DHT22;10115;50.906;4.438;2023-12-04T13:57:15;4.80;99.90
19906;DHT22;10115;50.906;4.438;2023-12-04T13:59:53;4.80;99.90
19906;DHT22;10115;50.906;4.438;2023-12-04T14:02:21;4.80;99.90
19906;DHT22;10115;50.906;4.438;2023-12-04T14:04:46;4.80;99.90
19906;DHT22;10115;50.906;4.438;2023-12-04T14:07:14;4.80;99.90
19906;DHT22;10115;50.906;4.438;2023-12-04T14:09:39;4.70;99.90
19906;DHT22;10115;50.906;4.438;2023-12-04T14:12:06;4.60;99.90
19906;DHT22;10115;50.906;4.438;2023-12-04T14:14:32;4.70;99.90
19906;DHT22;10115;50.906;4.438;2023-12-04T14:16:59;4.80;99.90
19906;DHT22;10115;50.906;4.438;2023-12-04T14:19:25;4.70;99.90
19906;DHT22;10115;50.906;4.438;2023-12-04T14:21:50;4.80;99.90
19906;DHT22;10115;50.906;4.438;2023-12-04T14:24:16;4.80;99.90
19906;DHT22;10115;50.906;4.438;2023-12-04T14:26:43;4.80;99.90
19906;DHT22;10115;50.906;4.438;2023-12-04T14:29:09;4.80;99.90
19906;DHT22;10115;50.906;4.438;2023-12-04T14:31:35;4.90;99.90
19906;DHT22;10115;50.906;4.438;2023-12-04T14:34:00;4.70;99.90
19906;DHT22;10115;50.906;4.438;2023-12-04T14:36:26;4.90;99.90
19906;DHT22;10115;50.906;4.438;2023-12-04T14:38:56;4.70;99.90
19906;DHT22;10115;50.906;4.438;2023-12-04T14:41:21;4.70;99.90
19906;DHT22;10115;50.906;4.438;2023-12-04T14:43:47;4.80;99.90
19906;DHT22;10115;50.906;4.438;2023-12-04T14:46:13;4.70;99.90
19906;DHT22;10115;50.906;4.438;2023-12-04T14:48:39;4.60;99.90
19906;DHT22;10115;50.906;4.438;2023-12-04T14:51:07;4.70;99.90
19906;DHT22;10115;50.906;4.438;2023-12-04T14:53:32;4.70;99.90
19906;DHT22;10115;50.906;4.438;2023-12-04T14:56:26;4.80;99.90
19906;DHT22;10115;50.906;4.438;2023-12-04T14:59:10;4.90;99.90
19906;DHT22;10115;50.906;4.438;2023-12-04T15:01:38;4.80;99.90
19906;DHT22;10115;50.906;4.438;2023-12-04T15:04:13;4.90;99.90
19906;DHT22;10115;50.906;4.438;2023-12-04T15:06:57;5.00;99.90
19906;DHT22;10115;50.906;4.438;2023-12-04T15:09:25;5.00;99.90
19906;DHT22;10115;50.906;4.438;2023-12-04T15:12:22;4.80;99.90
19906;DHT22;10115;50.906;4.438;2023-12-04T15:15:13;4.80;99.90
19906;DHT22;10115;50.906;4.438;2023-12-04T15:17:54;4.80;99.90
19906;DHT22;10115;50.906;4.438;2023-12-04T15:20:40;4.80;99.90
19906;DHT22;10115;50.906;4.438;2023-12-04T15:23:06;4.80;99.90
19906;DHT22;10115;50.906;4.438;2023-12-04T15:25:31;4.80;99.90
19906;DHT22;10115;50.906;4.438;2023-12-04T15:27:58;4.80;99.90
19906;DHT22;10115;50.906;4.438;2023-12-04T15:30:23;4.80;99.90
19906;DHT22;10115;50.906;4.438;2023-12-04T15:32:49;4.70;99.90
19906;DHT22;10115;50.906;4.438;2023-12-04T15:35:15;4.80;99.90
19906;DHT22;10115;50.906;4.438;2023-12-04T15:37:41;4.80;99.90
19906;DHT22;10115;50.906;4.438;2023-12-04T15:40:07;4.80;99.90
19906;DHT22;10115;50.906;4.438;2023-12-04T15:42:34;4.80;99.90
19906;DHT22;10115;50.906;4.438;2023-12-04T15:45:00;5.00;99.90
19906;DHT22;10115;50.906;4.438;2023-12-04T15:47:26;4.90;99.90
19906;DHT22;10115;50.906;4.438;2023-12-04T15:49:51;4.80;99.90